Time;durP1;ratioP1;P1;durP2;ratioP2;P2;SDS_P1;SDS_P2;PMS_P1;PMS_P2;Temp;Humidity;BMP_temperature;BMP_pressure;BME280_temperature;BME280_humidity;BME280_pressure;Samples;Min_cycle;Max_cycle;Signal;HPM_P1;HPM_P2
2023/11/17 00:00:55;;;;;;;59.35;55.95;;;;;;;;;;5025171;28;20509;-66
2023/11/17 00:03:21;;;;;;;57.20;54.25;;;;;;;;;;5027866;28;20048;-66
2023/11/17 00:05:46;;;;;;;54.60;51.80;;;;;;;;;;5029125;28;20421;-66
2023/11/17 00:08:12;;;;;;;55.75;52.92;;;;;;;;;;5028451;28;20039;-66
2023/11/17 00:10:38;;;;;;;57.92;54.95;;;;;;;;;;5024799;28;20433;-66
2023/11/17 00:13:04;;;;;;;58.60;55.60;;;;;;;;;;5026155;28;20434;-65
2023/11/17 00:15:30;;;;;;;53.83;50.30;;;;;;;;;;5026217;28;20056;-66
2023/11/17 00:17:55;;;;;;;56.85;53.83;;;;;;;;;;5025836;28;20048;-66
2023/11/17 00:20:21;;;;;;;51.92;49.30;;;;;;;;;;5027273;28;20026;-66
2023/11/17 00:22:47;;;;;;;53.35;50.55;;;;;;;;;;5026589;28;20026;-66
2023/11/17 00:25:19;;;;;;;55.60;52.78;;;;;;;;;;5027793;28;20064;-66
2023/11/17 00:27:46;;;;;;;60.53;57.45;;;;;;;;;;5028018;28;20041;-66
2023/11/17 00:30:13;;;;;;;53.42;50.45;;;;;;;;;;5022998;28;20060;-66
2023/11/17 00:32:40;;;;;;;52.75;50.05;;;;;;;;;;5028652;28;20061;-66
2023/11/17 00:35:07;;;;;;;56.10;53.17;;;;;;;;;;5025509;28;20022;-65
2023/11/17 00:37:32;;;;;;;49.83;47.30;;;;;;;;;;5026266;28;20095;-65
2023/11/17 00:39:58;;;;;;;60.45;56.50;;;;;;;;;;5025943;28;20433;-65
2023/11/17 00:42:23;;;;;;;55.22;52.45;;;;;;;;;;5028991;28;20024;-65
2023/11/17 00:44:49;;;;;;;61.60;58.22;;;;;;;;;;5026494;28;20128;-65
2023/11/17 00:47:15;;;;;;;62.20;59.08;;;;;;;;;;5025168;28;20458;-65
2023/11/17 00:49:42;;;;;;;62.67;59.53;;;;;;;;;;5022418;28;20083;-65
2023/11/17 00:52:08;;;;;;;64.65;61.30;;;;;;;;;;5027948;28;20034;-66
2023/11/17 00:54:42;;;;;;;62.28;59.08;;;;;;;;;;5027002;28;20052;-66
2023/11/17 00:57:10;;;;;;;61.55;58.45;;;;;;;;;;5027087;28;20029;-66
2023/11/17 00:59:36;;;;;;;63.50;60.30;;;;;;;;;;5023593;28;20124;-62
2023/11/17 01:02:01;;;;;;;68.40;64.30;;;;;;;;;;5039410;28;20127;-61
2023/11/17 01:04:27;;;;;;;66.55;63.20;;;;;;;;;;5026289;28;20388;-62
2023/11/17 01:06:53;;;;;;;66.03;62.67;;;;;;;;;;5026990;28;20350;-62
2023/11/17 01:09:20;;;;;;;67.53;64.15;;;;;;;;;;5025935;28;20102;-62
2023/11/17 01:11:45;;;;;;;65.50;62.10;;;;;;;;;;5025657;28;20072;-62
2023/11/17 01:14:11;;;;;;;68.45;64.95;;;;;;;;;;5024676;28;20037;-62
2023/11/17 01:16:37;;;;;;;67.15;63.80;;;;;;;;;;5025459;28;20040;-62
2023/11/17 01:19:03;;;;;;;65.32;62.03;;;;;;;;;;5028552;28;20320;-62
2023/11/17 01:21:28;;;;;;;69.95;66.40;;;;;;;;;;5025321;28;20171;-62
2023/11/17 01:23:54;;;;;;;69.15;65.65;;;;;;;;;;5038939;28;20029;-62
2023/11/17 01:26:19;;;;;;;70.13;66.60;;;;;;;;;;5025591;28;20162;-62
2023/11/17 01:28:45;;;;;;;69.65;66.07;;;;;;;;;;5024236;28;20034;-62
2023/11/17 01:31:10;;;;;;;69.35;65.65;;;;;;;;;;5027127;28;20044;-62
2023/11/17 01:33:36;;;;;;;64.25;60.97;;;;;;;;;;5025909;28;20045;-62
2023/11/17 01:36:01;;;;;;;64.75;61.50;;;;;;;;;;5027492;28;20025;-62
2023/11/17 01:38:26;;;;;;;64.47;60.92;;;;;;;;;;5022980;28;20060;-62
2023/11/17 01:40:56;;;;;;;65.57;62.22;;;;;;;;;;5025258;28;20371;-62
2023/11/17 01:43:21;;;;;;;66.30;62.63;;;;;;;;;;5026555;28;20700;-62
2023/11/17 01:45:47;;;;;;;70.20;66.68;;;;;;;;;;5022902;28;20037;-62
2023/11/17 01:48:12;;;;;;;72.68;69.00;;;;;;;;;;5025194;28;20386;-62
2023/11/17 01:50:38;;;;;;;75.60;71.78;;;;;;;;;;5022967;28;20037;-62
2023/11/17 01:53:06;;;;;;;70.45;66.65;;;;;;;;;;5023839;28;20141;-62
2023/11/17 01:55:32;;;;;;;72.22;68.57;;;;;;;;;;5026096;28;20037;-62
2023/11/17 01:57:59;;;;;;;71.82;68.13;;;;;;;;;;5022898;28;20443;-62
2023/11/17 02:00:25;;;;;;;75.63;71.72;;;;;;;;;;5009800;28;20086;-62
2023/11/17 02:02:51;;;;;;;75.93;72.15;;;;;;;;;;5024101;28;20037;-62
2023/11/17 02:05:27;;;;;;;75.32;71.53;;;;;;;;;;5025190;28;20037;-62
2023/11/17 02:08:02;;;;;;;74.82;71.07;;;;;;;;;;5029276;28;20411;-62
2023/11/17 02:10:50;;;;;;;71.63;67.88;;;;;;;;;;5025384;28;20485;-62
2023/11/17 02:13:25;;;;;;;68.55;65.05;;;;;;;;;;5026866;28;20049;-62
2023/11/17 02:15:54;;;;;;;78.38;74.38;;;;;;;;;;5024645;28;20082;-62
2023/11/17 02:18:22;;;;;;;84.55;80.28;;;;;;;;;;5025639;28;20033;-66
2023/11/17 02:20:52;;;;;;;83.22;78.97;;;;;;;;;;5027961;28;20033;-66
2023/11/17 02:23:20;;;;;;;83.97;79.45;;;;;;;;;;5028085;28;20033;-66
2023/11/17 02:25:59;;;;;;;83.05;78.90;;;;;;;;;;5028367;28;20462;-66
2023/11/17 02:28:41;;;;;;;88.50;83.97;;;;;;;;;;5039335;28;20051;-66
2023/11/17 02:31:19;;;;;;;85.93;81.60;;;;;;;;;;5026254;28;20036;-65
2023/11/17 02:33:48;;;;;;;87.20;82.82;;;;;;;;;;5027967;28;20032;-66
2023/11/17 02:36:18;;;;;;;86.97;82.65;;;;;;;;;;5027775;28;20025;-66
2023/11/17 02:41:56;;;;;;;80.47;76.35;;;;;;;;;;5029904;28;20036;-66
2023/11/17 02:44:22;;;;;;;83.45;79.10;;;;;;;;;;5028203;28;20095;-65
2023/11/17 02:46:58;;;;;;;87.95;83.57;;;;;;;;;;5025044;28;20037;-67
2023/11/17 02:49:29;;;;;;;87.03;82.72;;;;;;;;;;5027220;28;20075;-65
2023/11/17 02:52:02;;;;;;;;;;;;;;;;;;5026893;28;20551;-65
2023/11/17 02:54:30;;;;;;;79.30;75.38;;;;;;;;;;5027960;28;19924;-65
2023/11/17 02:56:56;;;;;;;85.75;81.50;;;;;;;;;;5025352;28;20404;-67
2023/11/17 02:59:23;;;;;;;87.30;82.97;;;;;;;;;;5030527;28;20029;-66
2023/11/17 03:01:50;;;;;;;92.07;87.43;;;;;;;;;;5029648;28;20060;-66
2023/11/17 03:04:16;;;;;;;92.50;87.90;;;;;;;;;;5029487;28;20248;-65
2023/11/17 03:06:46;;;;;;;88.47;84.07;;;;;;;;;;5029233;28;20179;-66
2023/11/17 03:09:13;;;;;;;88.22;83.85;;;;;;;;;;5025942;28;20025;-65
2023/11/17 03:11:41;;;;;;;85.63;81.25;;;;;;;;;;5028668;28;20033;-67
2023/11/17 03:14:10;;;;;;;90.85;86.32;;;;;;;;;;5025927;28;20216;-66
2023/11/17 03:16:36;;;;;;;88.45;83.95;;;;;;;;;;5027312;28;20041;-66
2023/11/17 03:19:02;;;;;;;85.28;80.57;;;;;;;;;;5028017;28;20038;-66
2023/11/17 03:21:28;;;;;;;85.45;81.18;;;;;;;;;;5027311;28;20041;-66
2023/11/17 03:23:53;;;;;;;90.05;85.57;;;;;;;;;;5025496;28;20152;-66
2023/11/17 03:26:19;;;;;;;87.97;83.60;;;;;;;;;;5027250;28;20041;-66
2023/11/17 03:28:45;;;;;;;84.60;80.38;;;;;;;;;;5023969;28;20029;-65
2023/11/17 03:31:13;;;;;;;89.32;84.88;;;;;;;;;;5027429;28;20036;-66
2023/11/17 03:33:43;;;;;;;89.05;84.60;;;;;;;;;;5029620;28;20038;-66
2023/11/17 03:36:12;;;;;;;87.85;83.40;;;;;;;;;;5027457;28;20041;-66
2023/11/17 03:38:40;;;;;;;93.47;88.82;;;;;;;;;;5026170;28;20345;-66
2023/11/17 03:41:06;;;;;;;92.25;87.63;;;;;;;;;;5031735;28;20033;-66
2023/11/17 03:43:31;;;;;;;93.80;89.07;;;;;;;;;;5026574;28;20324;-66
2023/11/17 03:45:56;;;;;;;90.18;85.65;;;;;;;;;;5028861;28;20033;-66
2023/11/17 03:48:22;;;;;;;92.80;88.20;;;;;;;;;;5026742;28;20125;-66
2023/11/17 03:50:49;;;;;;;89.07;84.63;;;;;;;;;;5028197;28;20594;-66
2023/11/17 03:53:15;;;;;;;99.07;93.80;;;;;;;;;;5026954;28;20029;-66
2023/11/17 03:55:43;;;;;;;101.18;96.13;;;;;;;;;;5028247;28;20036;-66
2023/11/17 03:58:09;;;;;;;94.57;89.82;;;;;;;;;;5024604;28;20068;-66
2023/11/17 04:00:34;;;;;;;102.82;97.70;;;;;;;;;;5025552;28;20475;-66
2023/11/17 04:02:59;;;;;;;97.32;92.40;;;;;;;;;;5023477;28;20191;-66
2023/11/17 04:05:26;;;;;;;95.63;90.78;;;;;;;;;;5025965;28;20060;-65
2023/11/17 04:07:55;;;;;;;94.45;89.75;;;;;;;;;;5026453;28;20055;-66
2023/11/17 04:10:21;;;;;;;97.43;92.55;;;;;;;;;;5027285;28;20030;-66
2023/11/17 04:12:46;;;;;;;95.18;90.30;;;;;;;;;;5019645;28;20041;-65
2023/11/17 04:15:12;;;;;;;90.15;85.65;;;;;;;;;;5026705;28;20157;-65
2023/11/17 04:17:38;;;;;;;94.50;89.57;;;;;;;;;;5022513;28;20020;-65
2023/11/17 04:20:03;;;;;;;95.47;90.68;;;;;;;;;;5025133;28;20297;-66
2023/11/17 04:22:29;;;;;;;103.40;98.20;;;;;;;;;;5024485;28;20072;-66
2023/11/17 04:24:54;;;;;;;97.50;92.60;;;;;;;;;;5023335;28;20080;-66
2023/11/17 04:27:19;;;;;;;98.63;93.50;;;;;;;;;;5023428;28;20036;-66
2023/11/17 04:29:45;;;;;;;95.00;90.28;;;;;;;;;;5023763;28;20032;-66
2023/11/17 04:32:10;;;;;;;96.50;91.45;;;;;;;;;;5029570;28;20033;-66
2023/11/17 04:34:36;;;;;;;94.35;89.70;;;;;;;;;;5032765;28;20064;-66
2023/11/17 04:37:05;;;;;;;91.65;87.07;;;;;;;;;;5024909;28;20025;-66
2023/11/17 04:39:31;;;;;;;86.28;81.95;;;;;;;;;;5027765;28;20041;-66
2023/11/17 04:41:56;;;;;;;85.10;80.85;;;;;;;;;;5024995;28;20029;-66
2023/11/17 04:44:22;;;;;;;82.80;78.68;;;;;;;;;;5026729;28;20503;-66
2023/11/17 04:46:48;;;;;;;80.65;76.60;;;;;;;;;;5024911;28;20025;-66
2023/11/17 04:49:14;;;;;;;88.20;83.28;;;;;;;;;;5025326;28;20038;-65
2023/11/17 04:51:46;;;;;;;86.80;82.38;;;;;;;;;;5024926;28;20041;-66
2023/11/17 04:54:14;;;;;;;82.60;78.20;;;;;;;;;;5025331;28;20507;-65
2023/11/17 04:56:42;;;;;;;84.60;80.22;;;;;;;;;;5027789;28;20030;-66
2023/11/17 04:59:10;;;;;;;86.32;81.85;;;;;;;;;;5024697;28;20422;-66
2023/11/17 05:01:37;;;;;;;82.22;78.03;;;;;;;;;;5022365;28;20064;-66
2023/11/17 05:04:02;;;;;;;82.35;78.10;;;;;;;;;;5027243;28;20113;-66
2023/11/17 05:06:28;;;;;;;79.28;75.30;;;;;;;;;;5028540;28;20108;-66
2023/11/17 05:08:53;;;;;;;81.50;77.43;;;;;;;;;;5030918;28;20431;-66
2023/11/17 05:11:21;;;;;;;84.88;80.57;;;;;;;;;;5029011;28;20815;-66
2023/11/17 05:13:46;;;;;;;85.38;80.97;;;;;;;;;;5027326;28;20061;-66
2023/11/17 05:16:14;;;;;;;83.88;79.68;;;;;;;;;;5030536;28;20069;-66
2023/11/17 05:18:39;;;;;;;88.35;83.90;;;;;;;;;;5026544;28;20069;-66
2023/11/17 05:21:06;;;;;;;90.50;86.00;;;;;;;;;;5025198;28;20509;-67
2023/11/17 05:23:32;;;;;;;92.88;88.13;;;;;;;;;;5029374;28;20026;-66
2023/11/17 05:25:58;;;;;;;86.88;82.50;;;;;;;;;;5025213;28;20035;-66
2023/11/17 05:28:24;;;;;;;88.95;84.43;;;;;;;;;;5023434;28;20037;-66
2023/11/17 05:30:50;;;;;;;91.00;86.38;;;;;;;;;;5022399;28;20092;-66
2023/11/17 05:33:18;;;;;;;90.90;86.38;;;;;;;;;;5026401;28;20121;-66
2023/11/17 05:35:43;;;;;;;85.43;81.10;;;;;;;;;;5024508;28;20037;-67
2023/11/17 05:38:09;;;;;;;90.80;86.20;;;;;;;;;;5021001;28;20462;-66
2023/11/17 05:40:34;;;;;;;85.57;81.20;;;;;;;;;;5024225;28;20037;-67
2023/11/17 05:43:00;;;;;;;86.70;82.40;;;;;;;;;;5024909;28;20076;-66
2023/11/17 05:45:26;;;;;;;84.43;80.13;;;;;;;;;;5020415;28;20112;-66
2023/11/17 05:47:53;;;;;;;81.70;77.22;;;;;;;;;;5025174;28;20499;-66
2023/11/17 05:50:18;;;;;;;74.75;70.97;;;;;;;;;;5024733;28;20037;-66
2023/11/17 05:52:44;;;;;;;73.00;69.30;;;;;;;;;;5028984;28;20095;-66
2023/11/17 05:55:11;;;;;;;75.32;71.53;;;;;;;;;;5030388;28;20037;-66
2023/11/17 05:57:38;;;;;;;73.28;69.53;;;;;;;;;;5026346;28;20467;-65
2023/11/17 06:00:08;;;;;;;72.82;69.18;;;;;;;;;;5028119;28;20045;-66
2023/11/17 06:02:34;;;;;;;74.93;71.13;;;;;;;;;;5029366;28;20035;-66
2023/11/17 06:04:59;;;;;;;72.30;68.63;;;;;;;;;;5028961;28;20045;-66
2023/11/17 06:07:25;;;;;;;69.15;65.63;;;;;;;;;;5028076;28;20033;-67
2023/11/17 06:09:51;;;;;;;70.88;67.20;;;;;;;;;;5031912;28;20040;-68
2023/11/17 06:12:16;;;;;;;74.70;70.85;;;;;;;;;;5043189;28;20087;-67
2023/11/17 06:14:42;;;;;;;75.28;71.43;;;;;;;;;;5029159;28;20674;-61
2023/11/17 06:17:11;;;;;;;75.88;72.03;;;;;;;;;;5026378;28;20056;-60
2023/11/17 06:19:37;;;;;;;71.65;67.95;;;;;;;;;;5030129;28;20037;-66
2023/11/17 06:22:06;;;;;;;75.45;71.57;;;;;;;;;;5027323;28;20064;-67
2023/11/17 06:24:32;;;;;;;74.82;71.05;;;;;;;;;;5028922;28;20041;-67
2023/11/17 06:26:58;;;;;;;81.18;76.97;;;;;;;;;;5026852;28;20045;-67
2023/11/17 06:29:23;;;;;;;79.60;75.57;;;;;;;;;;5027854;28;20416;-67
2023/11/17 06:31:49;;;;;;;82.72;78.30;;;;;;;;;;5028240;28;20461;-67
2023/11/17 06:34:15;;;;;;;78.07;74.00;;;;;;;;;;5030264;28;20051;-66
2023/11/17 06:36:41;;;;;;;74.35;70.60;;;;;;;;;;5026440;28;20025;-66
2023/11/17 06:39:16;;;;;;;71.70;67.72;;;;;;;;;;5028383;28;20538;-66
2023/11/17 06:41:43;;;;;;;68.60;64.97;;;;;;;;;;5029752;28;20045;-66
2023/11/17 06:44:11;;;;;;;71.43;67.78;;;;;;;;;;5027575;28;20497;-67
2023/11/17 06:46:41;;;;;;;71.38;67.75;;;;;;;;;;5032797;28;20049;-66
2023/11/17 06:49:08;;;;;;;79.15;75.20;;;;;;;;;;5028679;28;20034;-67
2023/11/17 06:51:54;;;;;;;75.97;72.07;;;;;;;;;;5025496;28;20041;-67
2023/11/17 06:54:21;;;;;;;78.22;74.30;;;;;;;;;;5023343;28;20076;-67
2023/11/17 06:56:47;;;;;;;77.55;73.50;;;;;;;;;;5022424;28;20026;-65
2023/11/17 06:59:14;;;;;;;84.18;79.78;;;;;;;;;;5028355;28;20048;-66
2023/11/17 07:01:40;;;;;;;81.03;76.80;;;;;;;;;;5029910;28;20621;-67
2023/11/17 07:04:06;;;;;;;81.70;77.60;;;;;;;;;;5022378;28;20037;-68
2023/11/17 07:06:33;;;;;;;80.85;76.63;;;;;;;;;;5027202;28;20482;-68
2023/11/17 07:09:00;;;;;;;77.03;73.03;;;;;;;;;;5028431;28;20037;-66
2023/11/17 07:11:25;;;;;;;82.07;77.95;;;;;;;;;;5029092;28;20033;-65
2023/11/17 07:13:55;;;;;;;83.00;78.85;;;;;;;;;;5024488;28;20564;-65
2023/11/17 07:16:21;;;;;;;83.88;79.57;;;;;;;;;;5024207;28;20112;-66
2023/11/17 07:18:49;;;;;;;88.30;83.90;;;;;;;;;;5029395;28;20040;-66
2023/11/17 07:21:15;;;;;;;87.47;83.07;;;;;;;;;;5028364;28;20380;-67
2023/11/17 07:23:43;;;;;;;86.45;82.15;;;;;;;;;;5025068;28;20036;-67
2023/11/17 07:26:17;;;;;;;94.63;89.57;;;;;;;;;;5024743;28;20053;-66
2023/11/17 07:28:47;;;;;;;83.55;79.28;;;;;;;;;;5027738;28;20048;-66
2023/11/17 07:31:17;;;;;;;83.60;79.30;;;;;;;;;;5023867;28;20051;-67
2023/11/17 07:33:44;;;;;;;84.88;80.53;;;;;;;;;;5028521;28;20037;-67
2023/11/17 07:36:10;;;;;;;89.63;85.07;;;;;;;;;;5024272;28;20628;-67
2023/11/17 07:38:39;;;;;;;86.25;81.82;;;;;;;;;;5025309;28;20061;-66
2023/11/17 07:41:05;;;;;;;88.68;83.90;;;;;;;;;;5022597;28;20029;-67
2023/11/17 07:43:31;;;;;;;88.97;84.53;;;;;;;;;;5025621;28;20052;-67
2023/11/17 07:45:57;;;;;;;84.82;80.53;;;;;;;;;;5021213;28;20034;-67
2023/11/17 07:48:22;;;;;;;89.30;84.78;;;;;;;;;;5025785;28;20104;-66
2023/11/17 07:50:48;;;;;;;93.50;88.80;;;;;;;;;;5025530;28;20033;-66
2023/11/17 07:53:13;;;;;;;91.75;87.15;;;;;;;;;;5022534;28;20104;-66
2023/11/17 07:55:41;;;;;;;92.43;87.78;;;;;;;;;;5026230;28;20541;-68
2023/11/17 07:58:07;;;;;;;88.70;84.10;;;;;;;;;;5024898;28;20080;-67
2023/11/17 08:00:34;;;;;;;87.07;82.70;;;;;;;;;;5025818;28;20045;-66
2023/11/17 08:02:59;;;;;;;91.05;86.47;;;;;;;;;;5026167;28;20035;-66
2023/11/17 08:05:24;;;;;;;90.32;85.82;;;;;;;;;;5025350;28;20390;-65
2023/11/17 08:07:50;;;;;;;89.05;84.10;;;;;;;;;;5026772;28;20076;-66
2023/11/17 08:10:15;;;;;;;85.40;81.03;;;;;;;;;;5027811;28;20600;-66
2023/11/17 08:12:41;;;;;;;82.55;78.32;;;;;;;;;;5022775;28;20045;-65
2023/11/17 08:15:07;;;;;;;87.13;82.78;;;;;;;;;;5024565;28;20065;-65
2023/11/17 08:17:32;;;;;;;86.63;81.97;;;;;;;;;;5017688;28;20037;-65
2023/11/17 08:19:59;;;;;;;84.75;80.40;;;;;;;;;;5026093;28;20520;-65
2023/11/17 08:22:29;;;;;;;84.30;80.05;;;;;;;;;;5026262;28;20022;-65
2023/11/17 08:24:55;;;;;;;90.57;85.75;;;;;;;;;;5025066;28;20151;-65
2023/11/17 08:27:21;;;;;;;86.25;81.95;;;;;;;;;;5024981;28;20341;-65
2023/11/17 08:29:47;;;;;;;91.95;87.22;;;;;;;;;;5026051;28;20167;-65
2023/11/17 08:32:12;;;;;;;83.65;79.43;;;;;;;;;;5029076;28;20404;-66
2023/11/17 08:34:38;;;;;;;79.63;75.47;;;;;;;;;;5027166;28;20025;-66
2023/11/17 08:37:05;;;;;;;85.15;80.80;;;;;;;;;;5026806;28;20037;-65
2023/11/17 08:39:34;;;;;;;83.20;79.05;;;;;;;;;;5024134;28;20029;-65
2023/11/17 08:41:59;;;;;;;75.15;71.05;;;;;;;;;;5027558;28;20047;-66
2023/11/17 08:44:26;;;;;;;76.18;72.28;;;;;;;;;;5022060;28;20543;-66
2023/11/17 08:46:52;;;;;;;69.97;66.28;;;;;;;;;;5026470;28;20025;-67
2023/11/17 08:49:17;;;;;;;67.22;63.70;;;;;;;;;;5026062;28;20459;-66
2023/11/17 08:51:46;;;;;;;62.33;59.03;;;;;;;;;;5025457;28;20033;-66
2023/11/17 08:54:12;;;;;;;60.58;57.47;;;;;;;;;;5028358;28;20079;-67
2023/11/17 08:56:38;;;;;;;58.88;55.80;;;;;;;;;;5031682;28;20045;-66
2023/11/17 08:59:03;;;;;;;55.38;52.33;;;;;;;;;;5025748;28;20045;-66
2023/11/17 09:01:29;;;;;;;53.40;50.45;;;;;;;;;;5024711;28;20084;-67
2023/11/17 09:03:54;;;;;;;50.78;48.13;;;;;;;;;;5029863;28;20489;-66
2023/11/17 09:06:20;;;;;;;49.30;46.70;;;;;;;;;;5027997;28;20045;-67
2023/11/17 09:08:46;;;;;;;48.08;45.38;;;;;;;;;;5025307;28;20033;-66
2023/11/17 09:11:11;;;;;;;47.53;45.08;;;;;;;;;;5025830;28;20075;-67
2023/11/17 09:13:37;;;;;;;46.40;43.72;;;;;;;;;;5027042;28;20064;-65
2023/11/17 09:16:03;;;;;;;43.45;41.05;;;;;;;;;;5023553;28;20112;-67
2023/11/17 09:18:31;;;;;;;44.28;41.95;;;;;;;;;;5027171;28;20141;-67
2023/11/17 09:20:57;;;;;;;44.38;42.00;;;;;;;;;;5025114;28;20375;-67
2023/11/17 09:23:23;;;;;;;46.58;44.15;;;;;;;;;;5027240;28;20042;-67
2023/11/17 09:25:49;;;;;;;45.47;42.97;;;;;;;;;;5022982;28;20034;-67
2023/11/17 09:28:16;;;;;;;47.47;44.97;;;;;;;;;;5024389;28;20406;-67
2023/11/17 09:30:42;;;;;;;49.85;47.15;;;;;;;;;;5024153;28;20033;-67
2023/11/17 09:33:08;;;;;;;53.05;50.22;;;;;;;;;;5023995;28;20060;-67
2023/11/17 09:35:36;;;;;;;51.80;49.10;;;;;;;;;;5026038;28;20029;-67
2023/11/17 09:38:09;;;;;;;50.58;47.97;;;;;;;;;;5023890;28;20052;-67
2023/11/17 09:40:35;;;;;;;56.15;53.25;;;;;;;;;;5022390;28;20042;-67
2023/11/17 09:43:10;;;;;;;63.08;59.65;;;;;;;;;;5018772;28;20045;-67
2023/11/17 09:45:37;;;;;;;63.05;59.63;;;;;;;;;;5026169;28;20044;-67
2023/11/17 09:48:06;;;;;;;65.13;61.72;;;;;;;;;;5024471;28;20079;-66
2023/11/17 09:50:32;;;;;;;62.47;59.28;;;;;;;;;;5025276;28;20477;-66
2023/11/17 09:52:59;;;;;;;58.50;55.47;;;;;;;;;;5022699;28;20037;-67
2023/11/17 09:55:30;;;;;;;56.97;54.05;;;;;;;;;;5024295;28;20071;-67
2023/11/17 09:58:02;;;;;;;56.13;53.28;;;;;;;;;;5022695;28;20088;-67
2023/11/17 10:00:28;;;;;;;56.28;53.35;;;;;;;;;;5024441;28;20125;-67
2023/11/17 10:02:56;;;;;;;58.47;55.50;;;;;;;;;;5023356;28;20067;-65
2023/11/17 10:05:23;;;;;;;61.63;58.47;;;;;;;;;;5024792;28;20444;-66
2023/11/17 10:07:54;;;;;;;63.05;59.83;;;;;;;;;;5027006;28;20029;-68
2023/11/17 10:10:20;;;;;;;;;;;;;;;;;;5026306;28;20036;-65
2023/11/17 10:12:48;;;;;;;66.75;63.38;;;;;;;;;;5024804;28;19917;-67
2023/11/17 10:15:16;;;;;;;76.53;71.70;;;;;;;;;;5021818;28;20038;-68
2023/11/17 10:17:44;;;;;;;82.15;77.70;;;;;;;;;;5023125;28;20026;-66
2023/11/17 10:20:17;;;;;;;86.95;82.63;;;;;;;;;;5023190;28;20071;-68
2023/11/17 10:22:47;;;;;;;85.20;80.93;;;;;;;;;;5021905;28;20132;-67
2023/11/17 10:25:13;;;;;;;87.20;82.85;;;;;;;;;;5023178;28;20068;-65
2023/11/17 10:27:42;;;;;;;91.75;87.05;;;;;;;;;;5024186;28;20157;-66
2023/11/17 10:30:07;;;;;;;88.18;83.75;;;;;;;;;;5021261;28;20117;-66
2023/11/17 10:32:37;;;;;;;93.65;88.97;;;;;;;;;;5022348;28;20047;-66
2023/11/17 10:35:11;;;;;;;85.60;81.28;;;;;;;;;;5023140;28;20068;-65
2023/11/17 10:37:36;;;;;;;89.43;84.85;;;;;;;;;;5025298;28;20036;-67
2023/11/17 10:40:02;;;;;;;93.18;88.53;;;;;;;;;;5027667;28;20032;-66
2023/11/17 10:42:32;;;;;;;94.38;89.68;;;;;;;;;;5030379;28;21618;-66
2023/11/17 10:44:57;;;;;;;92.88;88.15;;;;;;;;;;5032119;28;20230;-67
2023/11/17 10:47:24;;;;;;;97.40;92.35;;;;;;;;;;5031655;28;20029;-67
2023/11/17 10:50:08;;;;;;;95.03;90.28;;;;;;;;;;5026713;28;20034;-67
2023/11/17 10:52:34;;;;;;;83.20;79.03;;;;;;;;;;5026095;28;20045;-67
2023/11/17 10:54:59;;;;;;;79.78;75.72;;;;;;;;;;5028422;28;20723;-67
2023/11/17 10:57:26;;;;;;;78.43;74.50;;;;;;;;;;5029418;28;20049;-67
2023/11/17 10:59:52;;;;;;;76.75;72.90;;;;;;;;;;5025711;28;20036;-67
2023/11/17 11:02:19;;;;;;;83.03;78.65;;;;;;;;;;5026375;28;20659;-67
2023/11/17 11:04:46;;;;;;;77.47;73.43;;;;;;;;;;5030223;28;20041;-67
2023/11/17 11:07:11;;;;;;;76.82;72.93;;;;;;;;;;5025366;28;20040;-67
2023/11/17 11:09:38;;;;;;;70.00;66.20;;;;;;;;;;5027374;28;20068;-67
2023/11/17 11:12:07;;;;;;;64.00;60.70;;;;;;;;;;5027472;28;20029;-66
2023/11/17 11:14:33;;;;;;;61.70;58.58;;;;;;;;;;5028813;28;20121;-67
2023/11/17 11:17:00;;;;;;;62.78;59.63;;;;;;;;;;5026243;28;20476;-67
2023/11/17 11:19:27;;;;;;;61.28;57.72;;;;;;;;;;5026464;28;20041;-68
2023/11/17 11:22:00;;;;;;;57.17;54.25;;;;;;;;;;5028570;28;20037;-67
2023/11/17 11:24:34;;;;;;;59.13;56.08;;;;;;;;;;5027813;28;20040;-67
2023/11/17 11:27:01;;;;;;;57.35;54.38;;;;;;;;;;5028867;28;20071;-67
2023/11/17 11:29:29;;;;;;;52.55;49.83;;;;;;;;;;5026284;28;20048;-67
2023/11/17 11:31:55;;;;;;;48.47;45.97;;;;;;;;;;5027509;28;20059;-67
2023/11/17 11:34:21;;;;;;;48.95;46.35;;;;;;;;;;5023283;28;20048;-67
2023/11/17 11:36:48;;;;;;;46.28;43.92;;;;;;;;;;5025232;28;20038;-68
2023/11/17 11:39:14;;;;;;;49.35;46.78;;;;;;;;;;5030766;28;20037;-67
2023/11/17 11:41:41;;;;;;;45.08;42.78;;;;;;;;;;5029214;28;20064;-67
2023/11/17 11:44:09;;;;;;;43.67;40.83;;;;;;;;;;5023662;28;20041;-67
2023/11/17 11:46:35;;;;;;;45.47;42.92;;;;;;;;;;5020882;28;20040;-63
2023/11/17 11:49:05;;;;;;;43.22;40.70;;;;;;;;;;5025448;28;20383;-62
2023/11/17 11:51:39;;;;;;;42.45;40.17;;;;;;;;;;5026340;28;20098;-63
2023/11/17 11:54:08;;;;;;;41.60;39.30;;;;;;;;;;5024774;28;20491;-62
2023/11/17 11:56:35;;;;;;;42.22;40.03;;;;;;;;;;5027205;28;20033;-63
2023/11/17 11:59:03;;;;;;;45.30;42.72;;;;;;;;;;5024271;28;20046;-62
2023/11/17 12:01:32;;;;;;;43.20;40.90;;;;;;;;;;5026219;28;20051;-63
2023/11/17 12:03:58;;;;;;;43.50;41.10;;;;;;;;;;5026153;28;20371;-62
2023/11/17 12:06:28;;;;;;;43.88;41.58;;;;;;;;;;5022590;28;20978;-62
2023/11/17 12:09:07;;;;;;;43.50;41.22;;;;;;;;;;5023865;28;20058;-62
2023/11/17 12:11:47;;;;;;;40.22;38.00;;;;;;;;;;5025902;28;20038;-62
2023/11/17 12:14:15;;;;;;;39.67;37.58;;;;;;;;;;5025901;28;20143;-63
2023/11/17 12:16:42;;;;;;;39.70;37.60;;;;;;;;;;5026982;28;20038;-62
2023/11/17 12:19:09;;;;;;;41.03;38.85;;;;;;;;;;5027684;28;20048;-63
2023/11/17 12:21:41;;;;;;;40.20;38.05;;;;;;;;;;5024229;28;21202;-62
2023/11/17 12:24:11;;;;;;;42.80;40.50;;;;;;;;;;5024348;28;20021;-62
2023/11/17 12:26:40;;;;;;;42.40;40.13;;;;;;;;;;5029034;28;20048;-63
2023/11/17 12:29:11;;;;;;;43.53;41.25;;;;;;;;;;5024861;28;20061;-63
2023/11/17 12:31:38;;;;;;;42.28;39.95;;;;;;;;;;5026338;28;20032;-62
2023/11/17 12:34:05;;;;;;;44.20;41.10;;;;;;;;;;5029492;28;20040;-63
2023/11/17 12:36:31;;;;;;;42.50;40.30;;;;;;;;;;5026264;28;20064;-63
2023/11/17 12:38:59;;;;;;;43.28;40.55;;;;;;;;;;5026608;28;20049;-63
2023/11/17 12:41:26;;;;;;;44.45;42.05;;;;;;;;;;5028773;28;20084;-63
2023/11/17 12:43:56;;;;;;;45.63;43.03;;;;;;;;;;5023767;28;20033;-62
2023/11/17 12:46:25;;;;;;;44.38;42.03;;;;;;;;;;5025658;28;20041;-63
2023/11/17 12:48:50;;;;;;;47.35;44.75;;;;;;;;;;5024818;28;20053;-63
2023/11/17 12:51:29;;;;;;;43.63;41.22;;;;;;;;;;5023279;28;20482;-63
2023/11/17 12:53:57;;;;;;;44.15;41.85;;;;;;;;;;5026191;28;20049;-63
2023/11/17 12:56:24;;;;;;;46.35;42.58;;;;;;;;;;5025178;28;20065;-61
2023/11/17 12:58:50;;;;;;;45.38;42.97;;;;;;;;;;5012521;28;21228;-62
2023/11/17 13:01:17;;;;;;;45.28;42.53;;;;;;;;;;5024721;28;20042;-62
2023/11/17 13:03:48;;;;;;;42.92;40.63;;;;;;;;;;5026908;28;20045;-62
2023/11/17 13:06:16;;;;;;;42.67;40.40;;;;;;;;;;5022361;28;20037;-63
2023/11/17 13:08:42;;;;;;;42.95;40.70;;;;;;;;;;5028926;28;20040;-62
2023/11/17 13:11:09;;;;;;;42.97;40.67;;;;;;;;;;5031975;28;20039;-61
2023/11/17 13:13:41;;;;;;;44.45;42.13;;;;;;;;;;5026432;28;20037;-62
2023/11/17 13:16:13;;;;;;;43.78;41.55;;;;;;;;;;5028498;28;20928;-64
2023/11/17 13:18:40;;;;;;;42.63;40.22;;;;;;;;;;5028562;28;20304;-64
2023/11/17 13:21:10;;;;;;;44.88;42.35;;;;;;;;;;5023370;28;20048;-64
2023/11/17 13:23:37;;;;;;;45.47;42.97;;;;;;;;;;5023206;28;20115;-64
2023/11/17 13:26:20;;;;;;;46.70;44.08;;;;;;;;;;5025498;28;20044;-65
2023/11/17 13:28:46;;;;;;;45.60;43.20;;;;;;;;;;5025338;28;20033;-63
2023/11/17 13:31:22;;;;;;;47.75;45.05;;;;;;;;;;5024502;28;20033;-65
2023/11/17 13:33:53;;;;;;;46.28;43.88;;;;;;;;;;5023988;28;20135;-63
2023/11/17 13:36:26;;;;;;;45.83;43.37;;;;;;;;;;5022825;28;20351;-64
2023/11/17 13:41:37;;;;;;;45.88;43.33;;;;;;;;;;5026012;28;20034;-64
2023/11/17 13:44:06;;;;;;;47.00;44.35;;;;;;;;;;5022657;28;20082;-65
2023/11/17 13:46:36;;;;;;;44.55;42.20;;;;;;;;;;5023601;28;20060;-64
2023/11/17 13:49:12;;;;;;;43.87;41.20;;;;;;;;;;5025434;28;20094;-65
2023/11/17 13:51:44;;;;;;;44.85;42.10;;;;;;;;;;5024437;28;20295;-65
2023/11/17 13:54:12;;;;;;;43.28;40.88;;;;;;;;;;5021887;28;20046;-65
2023/11/17 13:56:39;;;;;;;46.22;43.83;;;;;;;;;;5022168;28;20029;-65
2023/11/17 13:59:17;;;;;;;46.67;43.95;;;;;;;;;;5021583;28;20596;-65
2023/11/17 14:01:45;;;;;;;45.50;43.10;;;;;;;;;;5025236;28;20131;-64
2023/11/17 14:04:10;;;;;;;46.00;43.60;;;;;;;;;;5023302;28;20057;-64
2023/11/17 14:06:36;;;;;;;45.60;43.20;;;;;;;;;;5022611;28;20440;-66
2023/11/17 14:09:03;;;;;;;45.08;42.63;;;;;;;;;;5026641;28;20029;-64
2023/11/17 14:11:29;;;;;;;48.72;46.13;;;;;;;;;;5024061;28;20472;-65
2023/11/17 14:13:54;;;;;;;43.42;41.13;;;;;;;;;;5011705;28;20025;-64
2023/11/17 14:16:22;;;;;;;44.90;42.50;;;;;;;;;;5030256;28;20033;-65
2023/11/17 14:18:52;;;;;;;45.22;42.75;;;;;;;;;;5030079;28;20032;-65
2023/11/17 14:21:19;;;;;;;47.38;44.22;;;;;;;;;;5030868;28;20037;-66
2023/11/17 14:23:44;;;;;;;46.13;43.67;;;;;;;;;;5028781;28;20041;-65
2023/11/17 14:26:10;;;;;;;48.80;46.22;;;;;;;;;;5027188;28;20041;-65